Time;durP1;ratioP1;P1;durP2;ratioP2;P2;SDS_P1;SDS_P2;PMS_P1;PMS_P2;Temp;Humidity;BMP_temperature;BMP_pressure;BME280_temperature;BME280_humidity;BME280_pressure;Samples;Min_cycle;Max_cycle;Signal;HPM_P1;HPM_P2
2021/05/23 00:00:25;;;;;;;3.63;1.87;;;10.20;99.90;;;;;;5053379;28;20825;-70
2021/05/23 00:02:56;;;;;;;1.83;1.60;;;10.10;99.90;;;;;;5053937;28;20259;-70
2021/05/23 00:05:25;;;;;;;1.97;1.77;;;10.00;99.90;;;;;;5054820;28;20436;-70
2021/05/23 00:07:59;;;;;;;1.43;1.30;;;10.10;99.90;;;;;;5054042;28;20486;-71
2021/05/23 00:10:27;;;;;;;4.77;1.83;;;10.00;99.90;;;;;;5053507;28;20465;-70
2021/05/23 00:12:54;;;;;;;4.43;1.77;;;10.10;99.90;;;;;;5053793;28;20576;-70
2021/05/23 00:15:32;;;;;;;4.80;2.37;;;10.00;99.90;;;;;;5052393;28;20427;-70
2021/05/23 00:17:58;;;;;;;1.80;1.40;;;10.10;99.90;;;;;;5052097;28;20859;-70
2021/05/23 00:20:25;;;;;;;2.70;1.70;;;10.10;99.90;;;;;;5052670;28;20557;-70
2021/05/23 00:22:51;;;;;;;3.87;1.80;;;10.10;99.90;;;;;;5052994;28;20177;-70
2021/05/23 00:25:19;;;;;;;2.43;1.90;;;10.10;99.90;;;;;;5052763;28;20432;-70
2021/05/23 00:27:45;;;;;;;3.10;1.93;;;10.00;99.90;;;;;;5053476;28;20407;-70
2021/05/23 00:30:12;;;;;;;2.17;1.80;;;10.00;99.90;;;;;;5053260;28;20463;-70
2021/05/23 00:32:39;;;;;;;2.20;2.00;;;10.00;99.90;;;;;;5051977;28;20827;-70
2021/05/23 00:35:05;;;;;;;5.03;1.97;;;10.00;99.90;;;;;;5051126;28;20404;-70
2021/05/23 00:37:31;;;;;;;2.20;1.87;;;10.00;99.90;;;;;;5053365;28;20408;-70
2021/05/23 00:39:56;;;;;;;3.83;2.23;;;10.00;99.90;;;;;;5053347;28;20408;-70
2021/05/23 00:42:22;;;;;;;4.00;1.47;;;10.00;99.90;;;;;;5052300;28;20188;-71
2021/05/23 00:44:47;;;;;;;5.53;2.00;;;9.90;99.90;;;;;;5053105;28;20177;-70
2021/05/23 00:47:13;;;;;;;2.23;1.70;;;10.10;99.90;;;;;;5053516;28;20181;-70
2021/05/23 00:49:39;;;;;;;3.93;1.60;;;10.10;99.90;;;;;;5051594;28;20231;-70
2021/05/23 00:52:08;;;;;;;4.37;1.80;;;10.00;99.90;;;;;;5051724;28;20709;-70
2021/05/23 00:54:34;;;;;;;2.53;2.03;;;10.00;99.90;;;;;;5052788;28;20199;-70
2021/05/23 00:57:01;;;;;;;1.73;1.40;;;10.00;99.90;;;;;;5052431;28;20427;-70
2021/05/23 00:59:27;;;;;;;2.13;2.00;;;10.00;99.90;;;;;;5052945;28;20416;-70
2021/05/23 01:01:55;;;;;;;3.17;2.50;;;10.00;99.90;;;;;;5052840;28;20426;-71
2021/05/23 01:04:21;;;;;;;6.67;2.03;;;10.00;99.90;;;;;;5052715;28;20407;-70
2021/05/23 01:06:47;;;;;;;2.53;2.33;;;10.00;99.90;;;;;;5051997;28;20810;-70
2021/05/23 01:09:14;;;;;;;4.53;1.93;;;10.00;99.90;;;;;;5051474;28;20448;-70
2021/05/23 01:11:42;;;;;;;6.97;2.30;;;10.00;99.90;;;;;;5052818;28;20880;-70
2021/05/23 01:14:23;;;;;;;3.13;2.27;;;10.00;99.90;;;;;;5052442;28;20430;-70
2021/05/23 01:16:52;;;;;;;3.60;1.80;;;10.00;99.90;;;;;;5052734;28;20420;-70
2021/05/23 01:19:32;;;;;;;4.93;1.73;;;10.00;99.90;;;;;;5051937;28;20474;-70
2021/05/23 01:22:25;;;;;;;3.90;1.70;;;9.90;99.90;;;;;;5051286;28;20515;-70
2021/05/23 01:25:11;;;;;;;4.80;1.57;;;10.00;99.90;;;;;;5051507;28;20485;-70
2021/05/23 01:27:37;;;;;;;2.63;2.40;;;9.90;99.90;;;;;;5052646;28;20439;-70
2021/05/23 01:30:10;;;;;;;2.67;1.90;;;9.90;99.90;;;;;;5052095;28;20447;-70
2021/05/23 01:32:37;;;;;;;5.40;1.80;;;9.90;99.90;;;;;;5052060;28;20392;-70
2021/05/23 01:35:09;;;;;;;3.57;1.93;;;9.90;99.90;;;;;;5051941;28;20494;-70
2021/05/23 01:37:35;;;;;;;4.10;2.10;;;9.90;99.90;;;;;;5052657;28;20792;-71
2021/05/23 01:40:03;;;;;;;2.53;1.77;;;9.80;99.90;;;;;;5051017;28;20430;-71
2021/05/23 01:42:30;;;;;;;7.93;2.30;;;9.90;99.90;;;;;;5051515;28;20404;-71
2021/05/23 01:44:56;;;;;;;2.80;2.20;;;9.80;99.90;;;;;;5052443;28;20424;-71
2021/05/23 01:47:21;;;;;;;6.57;2.10;;;9.80;99.90;;;;;;5052053;28;20415;-71
2021/05/23 01:49:47;;;;;;;2.53;2.30;;;9.80;99.90;;;;;;5051761;28;20949;-71
2021/05/23 01:52:13;;;;;;;5.90;2.30;;;9.80;99.90;;;;;;5051981;28;20173;-71
2021/05/23 01:54:38;;;;;;;1.60;1.50;;;9.80;99.90;;;;;;5052086;28;20227;-71
2021/05/23 01:57:04;;;;;;;4.60;1.90;;;9.70;99.90;;;;;;5051069;28;20177;-71
2021/05/23 01:59:30;;;;;;;4.17;2.80;;;9.70;99.90;;;;;;5050891;28;20271;-71
2021/05/23 02:01:56;;;;;;;2.20;2.10;;;9.70;99.90;;;;;;5051989;28;20491;-71
2021/05/23 02:04:23;;;;;;;2.60;2.03;;;9.60;99.90;;;;;;5052129;28;20188;-71
2021/05/23 02:06:49;;;;;;;6.17;4.93;;;9.70;99.90;;;;;;5051915;28;20177;-71
2021/05/23 02:09:15;;;;;;;5.50;2.07;;;9.60;99.90;;;;;;5052027;28;20459;-71
2021/05/23 02:11:40;;;;;;;3.80;2.47;;;9.50;99.90;;;;;;5051643;28;20414;-71
2021/05/23 02:14:07;;;;;;;3.93;2.83;;;9.50;99.90;;;;;;5050757;28;20203;-71
2021/05/23 02:16:33;;;;;;;4.17;3.10;;;9.60;99.90;;;;;;5050865;28;20201;-71
2021/05/23 02:18:59;;;;;;;2.20;2.10;;;9.60;99.90;;;;;;5050933;28;20441;-71
2021/05/23 02:21:25;;;;;;;2.67;2.03;;;9.60;99.90;;;;;;5052101;28;20412;-71
2021/05/23 02:23:53;;;;;;;2.53;2.03;;;9.50;99.90;;;;;;5051537;28;20415;-71
2021/05/23 02:26:19;;;;;;;2.40;2.20;;;9.40;99.90;;;;;;5051803;28;20184;-71
2021/05/23 02:28:45;;;;;;;3.50;2.10;;;9.40;99.90;;;;;;5051590;28;20865;-71
2021/05/23 02:31:11;;;;;;;4.73;2.20;;;9.40;99.90;;;;;;5050971;28;20507;-71
2021/05/23 02:33:36;;;;;;;5.73;2.43;;;9.40;99.90;;;;;;5050949;28;20389;-72
2021/05/23 02:36:02;;;;;;;4.43;2.40;;;9.40;99.90;;;;;;5051924;28;20412;-71
2021/05/23 02:38:28;;;;;;;2.80;2.07;;;9.40;99.90;;;;;;5051515;28;20237;-71
2021/05/23 02:40:56;;;;;;;3.23;2.10;;;9.40;99.90;;;;;;5051547;28;20500;-71
2021/05/23 02:43:22;;;;;;;3.63;2.67;;;9.40;99.90;;;;;;5051417;28;20236;-71
2021/05/23 02:45:49;;;;;;;5.97;2.50;;;9.40;99.90;;;;;;5052038;28;20411;-71
2021/05/23 02:48:15;;;;;;;4.87;2.77;;;9.30;99.90;;;;;;5050762;28;20414;-71
2021/05/23 02:50:44;;;;;;;5.03;2.07;;;9.30;99.90;;;;;;5050650;28;20546;-71
2021/05/23 02:53:11;;;;;;;5.67;2.33;;;9.30;99.90;;;;;;5050882;28;20419;-71
2021/05/23 02:55:38;;;;;;;3.60;2.17;;;9.20;99.90;;;;;;5052019;28;20741;-71
2021/05/23 02:58:06;;;;;;;5.50;3.13;;;9.20;99.90;;;;;;5054798;28;20423;-71
2021/05/23 03:00:32;;;;;;;2.67;2.47;;;9.20;99.90;;;;;;5055912;28;20422;-71
2021/05/23 03:02:57;;;;;;;5.33;3.00;;;9.10;99.90;;;;;;5055281;28;20423;-71
2021/05/23 03:05:24;;;;;;;4.93;1.90;;;9.20;99.90;;;;;;5053140;28;20422;-71
2021/05/23 03:07:55;;;;;;;6.50;2.30;;;9.10;99.90;;;;;;5053615;28;20173;-71
2021/05/23 03:10:33;;;;;;;5.40;2.40;;;9.20;99.90;;;;;;5054651;28;20850;-71
2021/05/23 03:13:00;;;;;;;3.70;2.00;;;9.10;99.90;;;;;;5054975;28;20495;-71
2021/05/23 03:15:27;;;;;;;4.53;2.03;;;9.00;99.90;;;;;;5054966;28;20487;-71
2021/05/23 03:17:54;;;;;;;5.80;2.50;;;9.00;99.90;;;;;;5054108;28;20473;-71
2021/05/23 03:20:21;;;;;;;6.60;2.27;;;8.90;99.90;;;;;;5054979;28;20415;-71
2021/05/23 03:22:49;;;;;;;5.70;2.83;;;8.90;99.90;;;;;;5053297;28;20416;-71
2021/05/23 03:25:16;;;;;;;3.83;3.17;;;8.80;99.90;;;;;;5052050;28;20419;-71
2021/05/23 03:27:42;;;;;;;8.13;2.60;;;8.80;99.90;;;;;;5054609;28;20403;-71
2021/05/23 03:30:11;;;;;;;3.90;2.13;;;8.80;99.90;;;;;;5054815;28;20474;-71
2021/05/23 03:32:37;;;;;;;5.00;3.00;;;8.70;99.90;;;;;;5054481;28;20868;-71
2021/05/23 03:35:04;;;;;;;5.07;2.30;;;8.70;99.90;;;;;;5054582;28;20404;-71
2021/05/23 03:37:29;;;;;;;9.87;2.00;;;8.70;99.90;;;;;;5054544;28;20906;-71
2021/05/23 03:39:55;;;;;;;7.17;2.50;;;8.70;99.90;;;;;;5053570;28;20459;-71
2021/05/23 03:42:21;;;;;;;3.50;2.03;;;8.70;99.90;;;;;;5053574;28;20241;-71
2021/05/23 03:44:46;;;;;;;3.13;2.10;;;8.70;99.90;;;;;;5054091;28;20185;-71
2021/05/23 03:47:12;;;;;;;2.90;2.70;;;8.70;99.90;;;;;;5054300;28;20205;-71
2021/05/23 03:49:38;;;;;;;5.13;3.10;;;8.70;99.90;;;;;;5053794;28;20547;-71
2021/05/23 03:52:09;;;;;;;3.87;2.90;;;8.70;99.90;;;;;;5054070;28;20481;-71
2021/05/23 03:54:35;;;;;;;7.03;2.63;;;8.70;99.90;;;;;;5054045;28;20624;-71
2021/05/23 03:57:00;;;;;;;4.23;2.23;;;8.80;99.90;;;;;;5053766;28;20507;-70
2021/05/23 03:59:26;;;;;;;8.57;2.60;;;9.00;99.90;;;;;;5052807;28;20627;-71
2021/05/23 04:01:52;;;;;;;4.43;3.00;;;9.00;99.90;;;;;;5054422;28;20545;-71
2021/05/23 04:04:21;;;;;;;4.70;2.77;;;9.00;99.90;;;;;;5053628;28;20562;-71
2021/05/23 04:06:49;;;;;;;3.00;2.57;;;9.00;99.90;;;;;;5053934;28;20173;-71
2021/05/23 04:09:14;;;;;;;2.97;2.30;;;9.00;99.90;;;;;;5054207;28;21073;-71
2021/05/23 04:11:43;;;;;;;4.10;2.53;;;9.00;99.90;;;;;;5053751;28;20422;-71
2021/05/23 04:14:10;;;;;;;3.30;3.00;;;9.00;99.90;;;;;;5053335;28;20184;-70
2021/05/23 04:16:36;;;;;;;3.03;2.47;;;9.00;99.90;;;;;;5052851;28;20408;-71
2021/05/23 04:19:01;;;;;;;2.70;2.33;;;9.00;99.90;;;;;;5053358;28;20422;-71
2021/05/23 04:21:27;;;;;;;3.63;2.43;;;8.90;99.90;;;;;;5053758;28;20169;-70
2021/05/23 04:23:53;;;;;;;6.80;3.40;;;8.90;99.90;;;;;;5053580;28;20177;-71
2021/05/23 04:26:19;;;;;;;4.30;2.80;;;9.00;99.90;;;;;;5053146;28;20169;-71
2021/05/23 04:28:44;;;;;;;2.93;2.70;;;8.90;99.90;;;;;;5053305;28;20190;-71
2021/05/23 04:31:10;;;;;;;6.27;2.90;;;8.90;99.90;;;;;;5053183;28;20275;-71
2021/05/23 04:33:35;;;;;;;5.10;2.70;;;8.80;99.90;;;;;;5052260;28;20528;-71
2021/05/23 04:36:01;;;;;;;5.93;2.77;;;8.80;99.90;;;;;;5053104;28;20178;-71
2021/05/23 04:38:27;;;;;;;5.50;4.83;;;8.80;99.90;;;;;;5053402;28;20600;-71
2021/05/23 04:40:52;;;;;;;4.10;2.70;;;8.70;99.90;;;;;;5052677;28;20243;-71
2021/05/23 04:43:18;;;;;;;5.13;3.20;;;8.80;99.90;;;;;;5053353;28;20185;-71
2021/05/23 04:45:44;;;;;;;7.40;3.43;;;8.80;99.90;;;;;;5052255;28;20185;-71
2021/05/23 04:48:10;;;;;;;3.43;2.67;;;8.80;99.90;;;;;;5052901;28;20260;-71
2021/05/23 04:50:36;;;;;;;9.13;3.37;;;8.70;99.90;;;;;;5051850;28;20197;-71
2021/05/23 04:53:02;;;;;;;7.00;3.30;;;8.80;99.90;;;;;;5053082;28;20462;-71
2021/05/23 04:55:27;;;;;;;5.57;3.10;;;8.70;99.90;;;;;;5052920;28;20201;-71
2021/05/23 04:57:53;;;;;;;7.13;3.03;;;8.80;99.90;;;;;;5053104;28;20432;-71
2021/05/23 05:00:19;;;;;;;3.93;2.60;;;8.90;99.90;;;;;;5052980;28;20201;-71
2021/05/23 05:02:45;;;;;;;4.37;2.90;;;8.90;99.90;;;;;;5051910;28;20485;-71
2021/05/23 05:05:12;;;;;;;3.60;3.07;;;8.90;99.90;;;;;;5052792;28;20473;-70
2021/05/23 05:07:39;;;;;;;6.17;2.80;;;8.80;99.90;;;;;;5051819;28;20200;-71
2021/05/23 05:10:06;;;;;;;10.50;3.60;;;8.80;99.90;;;;;;5052598;28;20458;-71
2021/05/23 05:12:32;;;;;;;4.70;2.60;;;8.80;99.90;;;;;;5052586;28;20418;-71
2021/05/23 05:14:57;;;;;;;6.90;3.83;;;8.90;99.90;;;;;;5052951;28;20543;-71
2021/05/23 05:17:24;;;;;;;5.30;2.90;;;8.90;99.90;;;;;;5051797;28;20177;-71
2021/05/23 05:19:49;;;;;;;2.90;2.47;;;8.90;99.90;;;;;;5050703;28;20181;-71
2021/05/23 05:22:15;;;;;;;3.73;3.27;;;8.90;99.90;;;;;;5052950;28;20430;-71
2021/05/23 05:24:40;;;;;;;4.87;3.10;;;8.90;99.90;;;;;;5051420;28;20181;-71
2021/05/23 05:27:06;;;;;;;6.57;3.00;;;9.10;99.90;;;;;;5052629;28;20177;-71
2021/05/23 05:29:32;;;;;;;7.07;2.67;;;9.10;99.90;;;;;;5051905;28;20228;-71
2021/05/23 05:31:59;;;;;;;8.70;2.57;;;9.10;99.90;;;;;;5052482;28;20208;-71
2021/05/23 05:34:24;;;;;;;4.10;2.80;;;9.20;99.90;;;;;;5052241;28;20180;-71
2021/05/23 05:36:50;;;;;;;6.17;2.93;;;9.30;99.90;;;;;;5050617;28;20408;-70
2021/05/23 05:39:16;;;;;;;4.10;3.13;;;9.30;99.90;;;;;;5052358;28;20181;-70
2021/05/23 05:41:41;;;;;;;5.97;3.03;;;9.30;99.90;;;;;;5051683;28;20264;-71
2021/05/23 05:44:07;;;;;;;6.83;3.50;;;9.30;99.90;;;;;;5052098;28;20191;-71
2021/05/23 05:46:33;;;;;;;4.60;2.47;;;9.50;99.90;;;;;;5051782;28;20181;-71
2021/05/23 05:48:58;;;;;;;9.57;2.50;;;9.50;99.90;;;;;;5051814;28;20532;-71
2021/05/23 05:51:24;;;;;;;4.40;2.23;;;9.50;99.90;;;;;;5052031;28;20641;-70
2021/05/23 05:53:50;;;;;;;7.70;2.80;;;9.50;99.90;;;;;;5051271;28;20412;-70
2021/05/23 05:56:15;;;;;;;4.33;2.30;;;9.60;99.90;;;;;;5051859;28;20169;-71
2021/05/23 05:58:41;;;;;;;5.80;2.37;;;9.50;99.90;;;;;;5051423;28;20173;-70
2021/05/23 06:01:07;;;;;;;10.80;3.13;;;9.60;99.90;;;;;;5052146;28;20177;-71
2021/05/23 06:03:33;;;;;;;7.27;2.47;;;9.60;99.90;;;;;;5052112;28;20239;-71
2021/05/23 06:05:58;;;;;;;2.10;1.90;;;9.70;99.90;;;;;;5050186;28;20238;-71
2021/05/23 06:08:24;;;;;;;4.77;2.20;;;9.70;99.90;;;;;;5051520;28;20180;-71
2021/05/23 06:10:51;;;;;;;9.10;2.60;;;9.70;99.90;;;;;;5051043;28;20243;-71
2021/05/23 06:13:17;;;;;;;7.10;2.77;;;9.70;99.90;;;;;;5051585;28;20419;-71
2021/05/23 06:15:43;;;;;;;5.33;2.47;;;9.70;99.90;;;;;;5050634;28;20407;-71
2021/05/23 06:18:08;;;;;;;9.60;3.00;;;9.80;99.90;;;;;;5051288;28;21361;-71
2021/05/23 06:20:34;;;;;;;2.57;2.00;;;9.90;99.90;;;;;;5051897;28;20407;-71
2021/05/23 06:23:00;;;;;;;10.90;2.90;;;9.90;99.90;;;;;;5050880;28;20235;-71
2021/05/23 06:25:25;;;;;;;3.20;2.40;;;9.90;99.90;;;;;;5051527;28;20236;-71
2021/05/23 06:27:51;;;;;;;8.00;1.60;;;9.90;99.90;;;;;;5050675;28;20496;-71
2021/05/23 06:30:18;;;;;;;2.37;2.10;;;10.00;99.90;;;;;;5052154;28;20826;-71
2021/05/23 06:32:44;;;;;;;10.20;2.40;;;10.10;99.90;;;;;;5053258;28;20170;-71
2021/05/23 06:35:14;;;;;;;5.93;1.70;;;10.20;99.90;;;;;;5055650;28;20415;-71
2021/05/23 06:37:39;;;;;;;5.30;2.73;;;10.30;99.90;;;;;;5055255;28;20408;-71
2021/05/23 06:40:06;;;;;;;2.63;2.07;;;10.30;99.90;;;;;;5055815;28;20407;-71
2021/05/23 06:42:32;;;;;;;4.50;2.70;;;10.30;99.90;;;;;;5055617;28;20181;-71
2021/05/23 06:44:58;;;;;;;2.70;2.40;;;10.40;99.90;;;;;;5054669;28;20429;-70
2021/05/23 06:47:23;;;;;;;5.30;2.50;;;10.30;99.90;;;;;;5055581;28;20212;-71
2021/05/23 06:49:49;;;;;;;5.70;2.07;;;10.30;99.90;;;;;;5053877;28;20266;-70
2021/05/23 06:52:15;;;;;;;5.03;3.00;;;10.40;99.90;;;;;;5055414;28;20173;-71
2021/05/23 06:54:41;;;;;;;11.30;2.77;;;10.50;99.90;;;;;;5055476;28;20422;-71
2021/05/23 06:57:06;;;;;;;3.00;1.97;;;10.60;99.90;;;;;;5055345;28;20532;-71
2021/05/23 06:59:32;;;;;;;4.23;2.00;;;10.80;99.90;;;;;;5055337;28;20185;-71
2021/05/23 07:01:58;;;;;;;5.00;2.60;;;10.80;99.90;;;;;;5054850;28;20732;-71
2021/05/23 07:04:24;;;;;;;4.53;2.80;;;11.00;99.90;;;;;;5055558;28;20192;-71
2021/05/23 07:06:50;;;;;;;10.70;3.03;;;11.10;99.90;;;;;;5069943;28;20180;-71
2021/05/23 07:09:16;;;;;;;5.50;2.00;;;11.20;99.90;;;;;;5055082;28;20448;-70
2021/05/23 07:11:42;;;;;;;7.50;2.37;;;11.20;99.90;;;;;;5054731;28;20477;-71
2021/05/23 07:14:07;;;;;;;5.93;2.50;;;11.10;99.90;;;;;;5055044;28;20872;-71
2021/05/23 07:16:33;;;;;;;7.77;2.27;;;11.10;99.90;;;;;;5054805;28;20860;-71
2021/05/23 07:18:59;;;;;;;3.70;2.20;;;11.20;99.90;;;;;;5053815;28;20219;-71
2021/05/23 07:21:24;;;;;;;9.70;2.13;;;11.20;99.90;;;;;;5055130;28;20570;-71
2021/05/23 07:23:50;;;;;;;8.97;2.67;;;11.30;99.90;;;;;;5054022;28;20197;-71
2021/05/23 07:26:16;;;;;;;5.07;2.13;;;11.40;99.90;;;;;;5055120;28;20254;-71
2021/05/23 07:28:41;;;;;;;6.60;2.50;;;11.50;99.90;;;;;;5052457;28;20177;-70
2021/05/23 07:31:07;;;;;;;9.70;2.23;;;11.50;99.90;;;;;;5054698;28;20200;-71
2021/05/23 07:33:33;;;;;;;6.20;1.90;;;11.40;99.90;;;;;;5054632;28;20519;-71
2021/05/23 07:35:59;;;;;;;6.07;2.20;;;11.40;99.90;;;;;;5050744;28;20174;-70
2021/05/23 07:38:24;;;;;;;2.97;2.00;;;11.50;99.90;;;;;;5054765;28;20174;-71
2021/05/23 07:40:50;;;;;;;7.47;2.07;;;11.60;99.90;;;;;;5053908;28;20411;-71
2021/05/23 07:43:16;;;;;;;3.57;1.93;;;11.60;99.90;;;;;;5053749;28;20481;-71
2021/05/23 07:45:42;;;;;;;3.43;1.90;;;11.70;99.90;;;;;;5054285;28;20626;-71
2021/05/23 07:48:08;;;;;;;4.73;1.80;;;11.80;99.90;;;;;;5053921;28;20192;-71
2021/05/23 07:50:34;;;;;;;3.60;2.90;;;12.00;99.90;;;;;;5054167;28;20661;-71
2021/05/23 07:53:01;;;;;;;8.90;1.80;;;12.10;99.90;;;;;;5053232;28;20209;-71
2021/05/23 07:55:27;;;;;;;3.07;2.20;;;12.10;99.90;;;;;;5054023;28;20466;-71
2021/05/23 07:57:53;;;;;;;7.67;2.50;;;12.10;99.90;;;;;;5052741;28;20419;-71
2021/05/23 08:00:19;;;;;;;5.53;1.77;;;12.10;99.90;;;;;;5054397;28;20415;-71
2021/05/23 08:02:44;;;;;;;4.10;1.90;;;12.10;99.90;;;;;;5053761;28;20182;-72
2021/05/23 08:05:11;;;;;;;2.00;1.60;;;12.10;99.90;;;;;;5053163;28;20619;-71
2021/05/23 08:07:37;;;;;;;4.20;2.50;;;12.10;99.90;;;;;;5054192;28;20529;-71
2021/05/23 08:10:05;;;;;;;2.20;1.67;;;12.10;99.90;;;;;;5052694;28;20444;-71
2021/05/23 08:12:32;;;;;;;11.00;1.80;;;12.00;99.90;;;;;;5053659;28;20505;-71
2021/05/23 08:14:58;;;;;;;4.77;1.53;;;12.10;99.90;;;;;;5052368;28;20448;-71
2021/05/23 08:17:23;;;;;;;2.50;2.17;;;12.10;99.90;;;;;;5053503;28;20395;-71
2021/05/23 08:19:49;;;;;;;2.97;1.73;;;12.30;99.90;;;;;;5054143;28;20835;-72
2021/05/23 08:22:15;;;;;;;4.00;1.80;;;12.50;99.90;;;;;;5053851;28;20243;-72
2021/05/23 08:24:40;;;;;;;6.03;1.83;;;12.70;99.90;;;;;;5053749;28;20205;-72
2021/05/23 08:27:06;;;;;;;4.13;2.10;;;12.60;99.90;;;;;;5052812;28;20181;-71
2021/05/23 08:29:32;;;;;;;2.23;1.70;;;12.60;99.90;;;;;;5053044;28;20542;-71
2021/05/23 08:31:58;;;;;;;4.73;1.70;;;12.70;99.90;;;;;;5052526;28;20169;-71
2021/05/23 08:34:24;;;;;;;5.40;1.67;;;12.70;99.90;;;;;;5053515;28;20189;-72
2021/05/23 08:36:50;;;;;;;1.60;1.47;;;12.70;99.90;;;;;;5053595;28;20509;-71
2021/05/23 08:39:16;;;;;;;2.30;1.43;;;12.60;99.90;;;;;;5053419;28;20180;-71
2021/05/23 08:41:45;;;;;;;3.13;1.63;;;12.50;99.90;;;;;;5053715;28;20177;-71
2021/05/23 08:44:17;;;;;;;6.87;1.63;;;12.50;99.90;;;;;;5052679;28;20572;-71
2021/05/23 08:46:46;;;;;;;4.37;2.13;;;12.50;99.90;;;;;;5053186;28;20428;-71
2021/05/23 08:49:16;;;;;;;1.87;1.73;;;12.30;99.90;;;;;;5051880;28;20431;-72
2021/05/23 08:51:42;;;;;;;5.13;2.20;;;12.30;99.90;;;;;;5052794;28;20411;-72
2021/05/23 08:54:07;;;;;;;4.63;1.90;;;12.40;99.90;;;;;;5052518;28;20474;-71
2021/05/23 08:56:33;;;;;;;2.83;1.63;;;12.50;99.90;;;;;;5053108;28;20257;-72
2021/05/23 08:58:58;;;;;;;5.70;1.90;;;12.60;99.90;;;;;;5052946;28;20177;-71
2021/05/23 09:01:28;;;;;;;4.60;1.40;;;12.40;99.90;;;;;;5051587;28;20185;-71
2021/05/23 09:04:02;;;;;;;2.03;1.30;;;12.40;99.90;;;;;;5052164;28;20658;-71
2021/05/23 09:06:35;;;;;;;4.60;1.67;;;12.50;99.90;;;;;;5051427;28;20426;-72
2021/05/23 09:09:06;;;;;;;4.60;1.50;;;12.60;99.90;;;;;;5052722;28;20416;-70
2021/05/23 09:11:33;;;;;;;3.73;1.30;;;12.60;99.90;;;;;;5052736;28;20403;-71
2021/05/23 09:13:59;;;;;;;2.60;1.80;;;12.70;99.90;;;;;;5052692;28;20423;-71
2021/05/23 09:16:25;;;;;;;4.73;1.50;;;12.80;99.90;;;;;;5052344;28;20411;-71
2021/05/23 09:18:56;;;;;;;4.20;1.53;;;13.00;99.90;;;;;;5050768;28;20169;-71
2021/05/23 09:21:30;;;;;;;3.13;1.40;;;13.00;99.90;;;;;;5052112;28;20414;-71
2021/05/23 09:24:01;;;;;;;1.63;1.40;;;13.10;99.90;;;;;;5050579;28;20495;-71
2021/05/23 09:26:45;;;;;;;2.43;1.50;;;13.00;99.90;;;;;;5052170;28;20415;-71
2021/05/23 09:29:22;;;;;;;1.70;1.30;;;13.10;99.90;;;;;;5052175;28;20408;-71
2021/05/23 09:31:58;;;;;;;1.53;1.43;;;13.30;99.90;;;;;;5052456;28;20498;-71
2021/05/23 09:34:26;;;;;;;2.43;1.50;;;13.40;99.90;;;;;;5052044;28;20392;-71
2021/05/23 09:36:51;;;;;;;3.57;1.47;;;13.50;99.90;;;;;;5051323;28;20407;-71
2021/05/23 09:39:18;;;;;;;4.23;1.70;;;13.70;99.90;;;;;;5051066;28;20731;-71
2021/05/23 09:41:44;;;;;;;2.30;1.73;;;13.80;99.90;;;;;;5052903;28;20177;-71
2021/05/23 09:44:25;;;;;;;3.43;1.40;;;13.80;99.90;;;;;;5051322;28;20408;-71
2021/05/23 09:46:54;;;;;;;1.53;1.43;;;13.80;99.90;;;;;;5052149;28;20408;-71
2021/05/23 09:49:21;;;;;;;4.30;1.77;;;13.70;99.90;;;;;;5052139;28;20838;-71
2021/05/23 09:52:00;;;;;;;1.57;1.47;;;13.90;99.90;;;;;;5051686;28;20745;-71
2021/05/23 09:54:29;;;;;;;1.40;1.30;;;14.10;99.90;;;;;;5052163;28;20407;-71
2021/05/23 09:56:56;;;;;;;2.90;1.30;;;14.40;99.90;;;;;;5051203;28;20411;-71
2021/05/23 09:59:26;;;;;;;3.00;1.30;;;14.60;99.90;;;;;;5051909;28;20748;-71
2021/05/23 10:02:03;;;;;;;3.80;1.20;;;14.80;99.90;;;;;;5051913;28;20404;-71
2021/05/23 10:04:29;;;;;;;2.40;1.70;;;15.00;99.90;;;;;;5052173;28;20465;-70
2021/05/23 10:06:59;;;;;;;1.67;1.43;;;15.20;99.90;;;;;;5054764;28;20416;-70
2021/05/23 10:09:27;;;;;;;2.30;1.73;;;15.50;99.90;;;;;;5054671;28;20756;-70
2021/05/23 10:11:53;;;;;;;1.67;1.37;;;15.70;99.90;;;;;;5054837;28;20410;-70
2021/05/23 10:14:19;;;;;;;2.27;1.33;;;15.60;99.90;;;;;;5055731;28;20407;-70
2021/05/23 10:16:49;;;;;;;3.23;1.83;;;15.80;99.90;;;;;;5055295;28;20422;-70
2021/05/23 10:19:16;;;;;;;2.80;1.10;;;15.80;99.90;;;;;;5055568;28;20745;-70
2021/05/23 10:21:46;;;;;;;2.50;1.17;;;15.20;99.90;;;;;;5055783;28;20403;-70
2021/05/23 10:24:13;;;;;;;4.63;1.50;;;14.90;99.90;;;;;;5055778;28;20409;-70
2021/05/23 10:26:41;;;;;;;1.17;1.07;;;15.10;99.90;;;;;;5054329;28;20412;-70
2021/05/23 10:29:07;;;;;;;1.83;1.70;;;15.00;99.90;;;;;;5054660;28;20884;-70
2021/05/23 10:31:35;;;;;;;4.00;1.60;;;15.00;99.90;;;;;;5055340;28;20468;-70
2021/05/23 10:34:02;;;;;;;2.17;1.37;;;15.00;99.90;;;;;;5055655;28;20410;-71
2021/05/23 10:36:37;;;;;;;2.40;1.60;;;15.00;99.90;;;;;;5055602;28;20435;-72
2021/05/23 10:39:09;;;;;;;1.37;1.10;;;15.40;99.90;;;;;;5055213;28;20423;-72
2021/05/23 10:41:35;;;;;;;6.30;1.50;;;15.70;99.90;;;;;;5055651;28;20423;-71
2021/05/23 10:44:04;;;;;;;1.40;1.30;;;15.70;99.90;;;;;;5054605;28;20835;-71
2021/05/23 10:46:30;;;;;;;2.67;2.40;;;15.50;99.90;;;;;;5054765;28;20617;-71
2021/05/23 10:48:58;;;;;;;1.83;1.30;;;15.30;99.90;;;;;;5054767;28;20435;-71
2021/05/23 10:51:26;;;;;;;1.67;1.53;;;15.30;99.90;;;;;;5055417;28;20451;-71
2021/05/23 10:53:52;;;;;;;1.23;1.13;;;15.00;99.90;;;;;;5055174;28;20611;-71
2021/05/23 10:56:26;;;;;;;2.23;1.30;;;15.10;99.90;;;;;;5055496;28;20410;-71
2021/05/23 10:58:59;;;;;;;1.70;1.50;;;15.10;99.90;;;;;;5055389;28;20710;-71
2021/05/23 11:01:46;;;;;;;2.63;1.50;;;15.40;99.90;;;;;;5054010;28;20403;-71
2021/05/23 11:04:21;;;;;;;1.53;1.43;;;15.60;99.90;;;;;;5053950;28;20435;-71
2021/05/23 11:06:48;;;;;;;2.13;1.60;;;15.90;99.90;;;;;;5054932;28;20406;-71
2021/05/23 11:09:23;;;;;;;2.30;1.70;;;16.00;99.90;;;;;;5054714;28;20744;-71
2021/05/23 11:11:49;;;;;;;2.17;1.97;;;15.80;99.90;;;;;;5055077;28;20493;-71
2021/05/23 11:14:23;;;;;;;2.43;1.43;;;15.30;99.90;;;;;;5054693;28;20491;-71
2021/05/23 11:16:54;;;;;;;2.40;1.40;;;15.20;99.90;;;;;;5053886;28;20507;-71
2021/05/23 11:19:22;;;;;;;1.97;1.50;;;15.30;99.90;;;;;;5054131;28;20436;-71
2021/05/23 11:21:50;;;;;;;1.57;1.47;;;15.60;99.90;;;;;;5053686;28;20412;-71
2021/05/23 11:24:16;;;;;;;4.30;1.50;;;16.10;99.90;;;;;;5054584;28;20416;-71
2021/05/23 11:26:42;;;;;;;1.80;1.70;;;16.40;99.90;;;;;;5054288;28;20412;-71
2021/05/23 11:29:08;;;;;;;2.93;1.87;;;16.40;99.90;;;;;;5054606;28;20461;-71
2021/05/23 11:31:47;;;;;;;3.07;1.67;;;16.20;99.90;;;;;;5054957;28;20411;-71
2021/05/23 11:34:15;;;;;;;1.63;1.33;;;16.00;99.90;;;;;;5053461;28;20477;-71
2021/05/23 11:36:42;;;;;;;1.67;1.23;;;15.80;99.90;;;;;;5054528;28;20752;-71
2021/05/23 11:39:21;;;;;;;1.43;1.23;;;15.60;99.90;;;;;;5053432;28;20415;-71
2021/05/23 11:41:48;;;;;;;2.40;1.20;;;15.30;99.90;;;;;;5054669;28;20462;-71
2021/05/23 11:44:15;;;;;;;2.47;1.63;;;15.20;99.90;;;;;;5054246;28;20412;-71
2021/05/23 11:46:43;;;;;;;1.50;1.40;;;15.00;99.90;;;;;;5054003;28;20412;-71
2021/05/23 11:49:20;;;;;;;2.60;1.50;;;15.00;99.90;;;;;;5053963;28;20435;-72
2021/05/23 11:51:46;;;;;;;3.70;3.40;;;15.00;99.90;;;;;;5053400;28;20399;-71
2021/05/23 11:54:12;;;;;;;4.60;2.00;;;15.10;99.90;;;;;;5053670;28;20417;-71
2021/05/23 11:56:39;;;;;;;2.90;1.60;;;15.10;99.90;;;;;;5054286;28;20411;-71
2021/05/23 11:59:07;;;;;;;1.50;1.40;;;15.20;99.90;;;;;;5053933;28;20408;-71
2021/05/23 12:01:37;;;;;;;1.67;1.57;;;15.40;99.90;;;;;;5053680;28;20519;-71
2021/05/23 12:04:14;;;;;;;5.63;2.50;;;15.50;99.90;;;;;;5053917;28;20432;-71
2021/05/23 12:06:48;;;;;;;1.47;1.13;;;15.60;99.90;;;;;;5053172;28;20444;-71
2021/05/23 12:09:24;;;;;;;1.87;1.40;;;15.60;99.90;;;;;;5053315;28;20442;-71
2021/05/23 12:11:57;;;;;;;1.63;1.37;;;15.30;99.90;;;;;;5052853;28;20418;-71
2021/05/23 12:14:26;;;;;;;1.50;1.30;;;15.20;99.90;;;;;;5053753;28;20404;-71
2021/05/23 12:17:08;;;;;;;1.50;1.40;;;15.00;99.90;;;;;;5053921;28;20419;-71
2021/05/23 12:19:49;;;;;;;2.07;1.47;;;14.90;99.90;;;;;;5052824;28;20428;-71
2021/05/23 12:22:17;;;;;;;1.80;1.70;;;14.80;99.90;;;;;;5053728;28;20411;-71
2021/05/23 12:24:43;;;;;;;3.67;1.53;;;14.70;99.90;;;;;;5051249;28;20605;-71
2021/05/23 12:27:14;;;;;;;4.33;1.80;;;14.60;99.90;;;;;;5052352;28;20423;-71
2021/05/23 12:29:40;;;;;;;2.30;2.20;;;14.50;99.90;;;;;;5051900;28;20455;-71
2021/05/23 12:32:05;;;;;;;2.50;1.47;;;14.30;99.90;;;;;;5053567;28;20495;-71
2021/05/23 12:34:32;;;;;;;2.70;1.93;;;14.20;99.90;;;;;;5053546;28;21052;-71
2021/05/23 12:37:01;;;;;;;3.40;1.90;;;14.20;99.90;;;;;;5053102;28;20178;-72
2021/05/23 12:39:27;;;;;;;2.13;1.93;;;14.20;99.90;;;;;;5053296;28;20492;-71
2021/05/23 12:41:54;;;;;;;2.47;1.80;;;14.20;99.90;;;;;;5052423;28;20965;-71
2021/05/23 12:44:25;;;;;;;2.10;1.80;;;14.20;99.90;;;;;;5053057;28;20238;-71
2021/05/23 12:46:52;;;;;;;2.57;1.80;;;14.30;99.90;;;;;;5052363;28;20422;-71
2021/05/23 12:49:20;;;;;;;2.30;2.10;;;14.40;99.90;;;;;;5053066;28;20944;-71
2021/05/23 12:51:48;;;;;;;1.83;1.70;;;14.50;99.90;;;;;;5053141;28;20408;-71